Résultats de la compétition "CHAMPIONNAT D'ALSACE SPRINT" du 17-02-2007 organisée par le comité départemental du 67 - Bas-Rhin
     
  Télécharger le fichier CSV.  
     
     

 Circuit "Circuit Dames"

Licence Nom Prénom Temps CN
précédent
Score sur
la course
Différence
14216VILLARIsabelle0:14:26N/A4054N/A
6753HUEBERNicole0:14:40N/A3989N/A
5639HUEBERDiane0:14:54N/A3927N/A
4203MEYEROriane0:15:25N/A3795N/A
13637KORCHAKLena0:16:33N/A3535N/A
12145WISSONEmilie0:16:37N/A3521N/A
13142LOEWAngelique0:16:57N/A3452N/A
12078CASTERANMarie0:17:20N/A3375N/A
1202VOISINStephanie0:17:25N/A3359N/A
15332MEYERPatricia0:17:56N/A3263N/A
13478KORCHAKNicole0:18:02N/A3244N/A
11510BRELLMANNEvelyne0:18:56N/A3090N/A
2361THIERYAnnick0:19:34N/A2990N/A
4073TARDYNatacha0:19:51N/A2948N/A
13688FRANCOISAline0:21:20N/A2743N/A
2557VOGTChristiane0:22:20N/A2620N/A
13692HAURYEvelyne0:23:32N/A2486N/A
2393ZIMMERMANNM-Laurenc0:23:33N/A2484N/A
17779BREGEAUDJennifer0:25:02N/A2337N/A
7574OUDINM-Reine0:27:39N/A2116N/A
1909MEYERCorinne0:28:05N/A2083N/A
18285GAERTNERCéline0:40:25N/A1448N/A
15857CASASSASAnnick0:42:00N/A1393N/A
5306LEMBLEFrederiqueN/AN/A0N/A

  Indice de confiance du circuit (moyenne des différences entre CN et score sur la course des 3 à 10 premiers) : 201






 Retour